Time;durP1;ratioP1;P1;durP2;ratioP2;P2;SDS_P1;SDS_P2;PMS_P1;PMS_P2;Temp;Humidity;BMP_temperature;BMP_pressure;BME280_temperature;BME280_humidity;BME280_pressure;Samples;Min_cycle;Max_cycle;Signal;HPM_P1;HPM_P2
2023/01/28 00:01:59;;;;;;;15.50;8.95;;;-4.50;99.90;;;;;;5056857;28;20033;-74
2023/01/28 00:04:25;;;;;;;18.92;9.43;;;-4.50;99.90;;;;;;5056835;28;20024;-74
2023/01/28 00:06:52;;;;;;;18.35;10.15;;;-4.50;99.90;;;;;;5056706;28;20479;-75
2023/01/28 00:09:18;;;;;;;25.83;11.45;;;-4.50;99.90;;;;;;5056167;28;20467;-74
2023/01/28 00:11:44;;;;;;;25.70;11.48;;;-4.50;99.90;;;;;;5056687;28;20059;-74
2023/01/28 00:14:11;;;;;;;18.73;10.95;;;-4.50;99.90;;;;;;5055621;28;20028;-74
2023/01/28 00:16:36;;;;;;;23.40;11.88;;;-4.50;99.90;;;;;;5056696;28;20055;-74
2023/01/28 00:19:02;;;;;;;31.77;13.30;;;-4.50;99.90;;;;;;5056257;28;20033;-74
2023/01/28 00:21:27;;;;;;;36.35;16.33;;;-4.50;99.90;;;;;;5056085;28;20021;-74
2023/01/28 00:23:54;;;;;;;30.48;14.10;;;-4.50;99.90;;;;;;5055206;28;20028;-74
2023/01/28 00:26:21;;;;;;;32.70;13.75;;;-4.50;99.90;;;;;;5055806;28;20021;-74
2023/01/28 00:28:47;;;;;;;25.80;13.23;;;-4.60;99.90;;;;;;5056666;28;20032;-75
2023/01/28 00:31:24;;;;;;;23.63;13.65;;;-4.80;99.90;;;;;;5044931;28;20037;-74
2023/01/28 00:33:51;;;;;;;42.85;16.23;;;-4.80;99.90;;;;;;5036138;28;20129;-73
2023/01/28 00:36:18;;;;;;;34.60;14.50;;;-4.90;99.90;;;;;;5036734;28;20031;-74
2023/01/28 00:38:52;;;;;;;39.75;15.35;;;-4.90;99.90;;;;;;5043884;28;20368;-74
2023/01/28 00:41:20;;;;;;;49.30;19.00;;;-5.00;99.90;;;;;;5055963;28;20021;-74
2023/01/28 00:43:47;;;;;;;27.30;13.90;;;-5.00;99.90;;;;;;5055835;28;20399;-74
2023/01/28 00:46:13;;;;;;;28.70;14.45;;;-5.00;99.90;;;;;;5055957;28;20044;-73
2023/01/28 00:48:40;;;;;;;28.25;13.20;;;-5.10;99.90;;;;;;5054519;28;20379;-74
2023/01/28 00:51:07;;;;;;;30.27;12.80;;;-5.20;99.90;;;;;;5055754;28;20479;-74
2023/01/28 00:53:35;;;;;;;29.38;11.93;;;-5.20;99.90;;;;;;5056211;28;20025;-73
2023/01/28 00:56:02;;;;;;;26.58;12.32;;;-5.20;99.90;;;;;;5055258;28;20031;-74
2023/01/28 00:58:27;;;;;;;28.95;13.52;;;-5.10;99.90;;;;;;5055920;28;20104;-74
2023/01/28 01:00:53;;;;;;;29.30;12.80;;;-5.20;99.90;;;;;;5055516;28;20120;-74
2023/01/28 01:03:19;;;;;;;27.98;12.98;;;-5.10;99.90;;;;;;5056825;28;20021;-74
2023/01/28 01:05:44;;;;;;;28.98;13.40;;;-5.10;99.90;;;;;;5056656;28;20036;-74
2023/01/28 01:08:10;;;;;;;24.67;13.13;;;-5.10;99.90;;;;;;5056241;28;20021;-73
2023/01/28 01:10:37;;;;;;;26.83;12.07;;;-5.10;99.90;;;;;;5054829;28;20021;-74
2023/01/28 01:13:04;;;;;;;22.45;11.20;;;-5.20;99.90;;;;;;5055543;28;20025;-74
2023/01/28 01:15:29;;;;;;;21.02;11.23;;;-5.20;99.90;;;;;;5058403;28;20033;-73
2023/01/28 01:17:56;;;;;;;21.08;11.00;;;-5.20;99.90;;;;;;5055176;28;20028;-73
2023/01/28 01:20:27;;;;;;;22.42;10.23;;;-5.10;99.90;;;;;;5054811;28;20037;-74
2023/01/28 01:22:54;;;;;;;20.42;9.80;;;-5.20;99.90;;;;;;5055198;28;20044;-74
2023/01/28 01:25:20;;;;;;;23.00;9.60;;;-5.10;99.90;;;;;;5055392;28;20025;-74
2023/01/28 01:27:49;;;;;;;21.98;11.93;;;-5.10;99.90;;;;;;5055215;28;20543;-73
2023/01/28 01:30:15;;;;;;;26.85;11.82;;;-5.20;99.90;;;;;;5055129;28;20021;-74
2023/01/28 01:32:41;;;;;;;33.28;11.88;;;-5.20;99.90;;;;;;5055260;28;20548;-74
2023/01/28 01:35:08;;;;;;;20.92;11.35;;;-5.20;99.90;;;;;;5055122;28;20029;-73
2023/01/28 01:37:35;;;;;;;16.00;9.75;;;-5.30;99.90;;;;;;5053660;28;20499;-74
2023/01/28 01:40:03;;;;;;;18.15;9.55;;;-5.30;99.90;;;;;;5054572;28;20029;-74
2023/01/28 01:42:30;;;;;;;19.63;10.45;;;-5.30;99.90;;;;;;5055135;28;20104;-74
2023/01/28 01:45:00;;;;;;;21.48;10.68;;;-5.30;99.90;;;;;;5054811;28;20035;-73
2023/01/28 01:47:36;;;;;;;23.40;10.30;;;-5.30;99.90;;;;;;5054830;28;20046;-74
2023/01/28 01:50:08;;;;;;;19.70;10.55;;;-5.30;99.90;;;;;;5054736;28;20028;-74
2023/01/28 01:52:35;;;;;;;18.65;10.35;;;-5.30;99.90;;;;;;5054639;28;20483;-74
2023/01/28 01:55:05;;;;;;;20.55;10.02;;;-5.30;99.90;;;;;;5054866;28;20039;-74
2023/01/28 01:57:34;;;;;;;17.40;10.07;;;-5.30;99.90;;;;;;5054466;28;20032;-74
2023/01/28 02:00:05;;;;;;;18.73;8.93;;;-5.30;99.90;;;;;;5054476;28;20390;-74
2023/01/28 02:02:41;;;;;;;24.15;9.80;;;-5.30;99.90;;;;;;5054168;28;20028;-74
2023/01/28 02:05:09;;;;;;;20.70;10.48;;;-5.30;99.90;;;;;;5054487;28;20040;-73
2023/01/28 02:07:36;;;;;;;24.80;11.13;;;-5.20;99.90;;;;;;5054313;28;20036;-73
2023/01/28 02:10:02;;;;;;;20.35;10.63;;;-5.20;99.90;;;;;;5054125;28;20021;-74
2023/01/28 02:12:34;;;;;;;25.10;9.95;;;-5.20;99.90;;;;;;5053034;28;20394;-73
2023/01/28 02:15:07;;;;;;;18.20;10.65;;;-5.10;99.90;;;;;;5054246;28;20060;-74
2023/01/28 02:17:33;;;;;;;21.98;10.45;;;-5.20;99.90;;;;;;5053978;28;20399;-74
2023/01/28 02:20:06;;;;;;;19.33;9.48;;;-5.20;99.90;;;;;;5054243;28;20083;-74
2023/01/28 02:22:34;;;;;;;17.20;9.63;;;-5.20;99.90;;;;;;5054083;28;20412;-73
2023/01/28 02:25:27;;;;;;;23.35;10.40;;;-5.20;99.90;;;;;;5053903;28;20091;-74
2023/01/28 02:28:37;;;;;;;18.35;9.75;;;-5.30;99.90;;;;;;5054130;28;20032;-75
2023/01/28 02:31:26;;;;;;;18.65;11.05;;;-5.40;99.90;;;;;;5034097;28;20043;-74
2023/01/28 02:33:58;;;;;;;22.30;12.35;;;-5.30;99.90;;;;;;5054037;28;20029;-74
2023/01/28 02:36:51;;;;;;;19.63;11.48;;;-5.20;99.90;;;;;;5054330;28;20027;-74
2023/01/28 02:39:32;;;;;;;22.67;10.80;;;-5.20;99.90;;;;;;5054024;28;20095;-74
2023/01/28 02:42:05;;;;;;;23.48;11.60;;;-5.10;99.90;;;;;;5054045;28;20025;-74
2023/01/28 02:44:31;;;;;;;;;;;-5.00;99.90;;;;;;5054639;28;20074;-74
2023/01/28 02:49:50;;;;;;;19.50;11.57;;;-5.00;99.90;;;;;;5053998;28;20032;-74
2023/01/28 02:55:56;;;;;;;27.88;10.38;;;-5.10;99.90;;;;;;5053854;28;20180;-74
2023/01/28 02:58:35;;;;;;;19.70;10.45;;;-5.20;99.90;;;;;;5053762;28;20059;-74
2023/01/28 03:01:29;;;;;;;19.73;10.95;;;-5.20;99.90;;;;;;5053650;28;20021;-74
2023/01/28 03:04:22;;;;;;;20.75;10.70;;;-5.30;99.90;;;;;;5051442;28;20037;-74
2023/01/28 03:06:51;;;;;;;23.67;12.65;;;-5.40;99.90;;;;;;5052474;28;20502;-74
2023/01/28 03:09:21;;;;;;;17.92;11.52;;;-5.30;99.90;;;;;;5053657;28;20021;-74
2023/01/28 03:36:49;;;;;;;25.00;12.48;;;-4.80;99.90;;;;;;5053972;28;20080;-74
2023/01/28 03:39:17;;;;;;;25.30;13.30;;;-4.90;99.90;;;;;;5053534;28;20104;-74
2023/01/28 03:42:10;;;;;;;25.08;13.98;;;-4.90;99.90;;;;;;5053484;28;20032;-74
2023/01/28 03:44:51;;;;;;;26.42;13.30;;;-4.90;99.90;;;;;;5052865;28;20029;-74
2023/01/28 03:47:22;;;;;;;24.08;14.73;;;-4.90;99.90;;;;;;5053342;28;20449;-74
2023/01/28 03:49:51;;;;;;;33.42;14.48;;;-4.90;99.90;;;;;;5053473;28;20471;-74
2023/01/28 03:52:21;;;;;;;26.70;14.85;;;-5.00;99.90;;;;;;5053481;28;20467;-74
2023/01/28 03:54:47;;;;;;;25.95;15.15;;;-4.90;99.90;;;;;;5052388;28;20063;-74
2023/01/28 03:57:17;;;;;;;35.95;17.95;;;-4.80;99.90;;;;;;5053647;28;20052;-74
2023/01/28 03:59:43;;;;;;;44.50;18.55;;;-4.50;99.90;;;;;;5053273;28;20124;-74
2023/01/28 04:02:10;;;;;;;31.17;17.30;;;-4.40;99.90;;;;;;5054740;28;20121;-73
2023/01/28 04:04:37;;;;;;;36.28;18.70;;;-4.20;99.90;;;;;;5055015;28;20017;-74
2023/01/28 04:07:03;;;;;;;32.00;17.42;;;-4.20;99.90;;;;;;5054309;28;20021;-72
2023/01/28 04:09:28;;;;;;;31.00;16.90;;;-4.30;99.90;;;;;;5056488;28;20067;-74
2023/01/28 04:11:54;;;;;;;36.15;18.35;;;-4.40;99.90;;;;;;5056191;28;20021;-74
2023/01/28 04:14:20;;;;;;;40.42;18.02;;;-4.30;99.90;;;;;;5048827;28;20502;-74
2023/01/28 04:16:45;;;;;;;29.88;16.58;;;-4.50;99.90;;;;;;5036573;28;20053;-74
2023/01/28 04:19:12;;;;;;;36.85;16.48;;;-4.60;99.90;;;;;;5037479;28;20057;-74
2023/01/28 04:21:38;;;;;;;38.85;18.35;;;-4.60;99.90;;;;;;5040023;28;20013;-73
2023/01/28 04:24:04;;;;;;;39.60;18.85;;;-4.50;99.90;;;;;;5056601;28;20051;-74
2023/01/28 04:26:30;;;;;;;33.28;19.67;;;-4.40;99.90;;;;;;5056423;28;20029;-74
2023/01/28 04:28:55;;;;;;;35.08;19.42;;;-4.30;99.90;;;;;;5056226;28;20025;-74
2023/01/28 04:31:22;;;;;;;40.58;20.50;;;-4.30;99.90;;;;;;5056393;28;20055;-74
2023/01/28 04:33:48;;;;;;;39.92;22.23;;;-4.30;99.90;;;;;;5056304;28;20020;-74
2023/01/28 04:36:14;;;;;;;43.90;22.77;;;-4.30;99.90;;;;;;5056575;28;20029;-74
2023/01/28 04:38:40;;;;;;;40.60;21.00;;;-4.10;99.90;;;;;;5055976;28;20441;-74
2023/01/28 04:41:05;;;;;;;43.58;22.20;;;-4.10;99.90;;;;;;5056279;28;20031;-73
2023/01/28 04:43:31;;;;;;;41.78;21.95;;;-4.20;99.90;;;;;;5055959;28;20032;-74
2023/01/28 04:45:56;;;;;;;46.15;24.65;;;-4.00;99.90;;;;;;5056138;28;20029;-74
2023/01/28 04:48:22;;;;;;;43.40;23.20;;;-4.00;99.90;;;;;;5055884;28;20593;-73
2023/01/28 04:50:47;;;;;;;46.97;25.13;;;-3.90;99.90;;;;;;5055856;28;20499;-73
2023/01/28 04:53:13;;;;;;;42.10;24.45;;;-4.00;99.90;;;;;;5055446;28;20112;-74
2023/01/28 04:55:38;;;;;;;52.17;24.73;;;-4.00;99.90;;;;;;5055925;28;20107;-74
2023/01/28 04:58:04;;;;;;;42.75;23.67;;;-3.90;99.90;;;;;;5055640;28;20021;-74
2023/01/28 05:00:29;;;;;;;51.85;27.33;;;-3.90;99.90;;;;;;5055224;28;20441;-74
2023/01/28 05:02:55;;;;;;;55.40;25.27;;;-3.90;99.90;;;;;;5055700;28;20496;-75
2023/01/28 05:05:20;;;;;;;53.78;27.23;;;-3.70;99.90;;;;;;5055656;28;20025;-74
2023/01/28 05:07:56;;;;;;;51.45;25.27;;;-3.70;99.90;;;;;;5055251;28;20025;-74
2023/01/28 05:10:24;;;;;;;48.50;24.83;;;-3.70;99.90;;;;;;5046388;28;20029;-73
2023/01/28 05:12:49;;;;;;;41.30;24.10;;;-3.80;99.90;;;;;;5047836;28;20491;-74
2023/01/28 05:15:16;;;;;;;57.60;25.25;;;-3.80;99.90;;;;;;5052898;28;20022;-74
2023/01/28 05:17:42;;;;;;;53.38;25.98;;;-3.90;99.90;;;;;;5052673;28;20134;-74
2023/01/28 05:20:10;;;;;;;49.70;25.70;;;-3.90;99.90;;;;;;5055119;28;20029;-74
2023/01/28 05:22:35;;;;;;;56.42;26.27;;;-3.90;99.90;;;;;;5055364;28;20436;-74
2023/01/28 05:25:03;;;;;;;57.47;26.13;;;-3.80;99.90;;;;;;5055325;28;20048;-74
2023/01/28 05:27:29;;;;;;;53.47;25.90;;;-3.70;99.90;;;;;;5055351;28;20025;-74
2023/01/28 05:29:55;;;;;;;51.85;26.10;;;-3.80;99.90;;;;;;5055071;28;20025;-73
2023/01/28 05:32:20;;;;;;;52.13;26.35;;;-3.70;99.90;;;;;;5054626;28;20105;-74
2023/01/28 05:34:46;;;;;;;50.72;26.10;;;-3.70;99.90;;;;;;5055133;28;20033;-74
2023/01/28 05:37:11;;;;;;;56.75;26.63;;;-3.70;99.90;;;;;;5055065;28;20033;-73
2023/01/28 05:39:37;;;;;;;48.65;25.08;;;-3.70;99.90;;;;;;5054892;28;20029;-74
2023/01/28 05:42:03;;;;;;;50.08;27.13;;;-3.80;99.90;;;;;;5054857;28;20052;-74
2023/01/28 05:44:28;;;;;;;58.80;26.00;;;-3.90;99.90;;;;;;5054806;28;20017;-74
2023/01/28 05:46:54;;;;;;;52.33;26.80;;;-4.00;99.90;;;;;;5054899;28;20025;-74
2023/01/28 05:49:19;;;;;;;52.38;26.20;;;-4.00;99.90;;;;;;5055261;28;20025;-74
2023/01/28 05:51:47;;;;;;;51.35;26.30;;;-4.00;99.90;;;;;;5055035;28;20028;-74
2023/01/28 05:54:12;;;;;;;51.80;26.38;;;-4.10;99.90;;;;;;5054926;28;20394;-74
2023/01/28 05:56:39;;;;;;;53.30;27.92;;;-4.00;99.90;;;;;;5055471;28;20033;-74
2023/01/28 05:59:04;;;;;;;61.03;27.80;;;-4.00;99.90;;;;;;5055886;28;20030;-74
2023/01/28 06:01:30;;;;;;;51.63;25.85;;;-3.90;99.90;;;;;;5055078;28;20033;-74
2023/01/28 06:03:55;;;;;;;55.75;27.30;;;-4.00;99.90;;;;;;5054461;28;20104;-74
2023/01/28 06:06:21;;;;;;;56.80;28.38;;;-4.00;99.90;;;;;;5054469;28;20075;-73
2023/01/28 06:08:47;;;;;;;47.20;23.80;;;-4.10;99.90;;;;;;5054251;28;20052;-74
2023/01/28 06:11:12;;;;;;;55.33;27.35;;;-4.10;99.90;;;;;;5054309;28;20039;-74
2023/01/28 06:13:40;;;;;;;58.72;28.67;;;-4.20;99.90;;;;;;5054507;28;20036;-74
2023/01/28 06:16:06;;;;;;;64.35;29.40;;;-4.30;99.90;;;;;;5054134;28;20055;-74
2023/01/28 06:18:32;;;;;;;61.75;29.17;;;-4.20;99.90;;;;;;5054089;28;20032;-73
2023/01/28 06:20:57;;;;;;;56.20;28.42;;;-4.10;99.90;;;;;;5054219;28;20364;-74
2023/01/28 06:23:23;;;;;;;57.55;30.25;;;-4.10;99.90;;;;;;5053380;28;20025;-74
2023/01/28 06:25:55;;;;;;;60.80;29.48;;;-4.20;99.90;;;;;;5054360;28;20028;-74
2023/01/28 06:28:23;;;;;;;66.70;28.88;;;-4.20;99.90;;;;;;5058881;28;20024;-74
2023/01/28 06:30:49;;;;;;;57.22;28.60;;;-4.20;99.90;;;;;;5073745;28;20024;-74
2023/01/28 06:33:15;;;;;;;63.17;29.45;;;-4.30;99.90;;;;;;5074034;28;20426;-74
2023/01/28 06:35:41;;;;;;;58.55;29.23;;;-4.30;99.90;;;;;;5073941;28;20059;-74
2023/01/28 06:38:07;;;;;;;69.05;30.90;;;-4.30;99.90;;;;;;5074400;28;20035;-74
2023/01/28 06:40:32;;;;;;;71.47;29.67;;;-4.10;99.90;;;;;;5073740;28;20025;-74
2023/01/28 06:42:58;;;;;;;64.68;29.83;;;-4.20;99.90;;;;;;5073738;28;20021;-74
2023/01/28 06:45:24;;;;;;;53.42;28.02;;;-4.20;99.90;;;;;;5073864;28;20103;-74
2023/01/28 06:47:50;;;;;;;60.50;30.40;;;-4.20;99.90;;;;;;5073850;28;20074;-74
2023/01/28 06:50:16;;;;;;;76.60;35.03;;;-4.10;99.90;;;;;;5073760;28;20092;-73
2023/01/28 06:52:41;;;;;;;81.28;34.28;;;-4.00;99.90;;;;;;5073813;28;20117;-74
2023/01/28 06:55:07;;;;;;;71.82;33.83;;;-3.80;99.90;;;;;;5073686;28;20481;-74
2023/01/28 06:57:33;;;;;;;69.90;32.88;;;-3.70;99.90;;;;;;5072340;28;20517;-74
2023/01/28 06:59:58;;;;;;;65.55;30.85;;;-3.60;99.90;;;;;;5073795;28;20016;-74
2023/01/28 07:02:24;;;;;;;65.65;31.73;;;-3.50;99.90;;;;;;5073548;28;20493;-74
2023/01/28 07:04:49;;;;;;;67.82;33.42;;;-3.50;99.90;;;;;;5073452;28;20032;-74
2023/01/28 07:07:15;;;;;;;67.78;33.75;;;-3.40;99.90;;;;;;5054550;28;20025;-73
2023/01/28 07:09:40;;;;;;;68.30;31.85;;;-3.40;99.90;;;;;;5053234;28;20058;-74
2023/01/28 07:12:06;;;;;;;64.32;33.22;;;-3.30;99.90;;;;;;5052203;28;20021;-74
2023/01/28 07:14:32;;;;;;;73.05;32.80;;;-3.30;99.90;;;;;;5053957;28;20029;-74
2023/01/28 07:16:57;;;;;;;66.38;33.00;;;-3.20;99.90;;;;;;5053390;28;20051;-74
2023/01/28 07:19:23;;;;;;;71.68;33.65;;;-3.10;99.90;;;;;;5052969;28;20045;-74
2023/01/28 07:21:48;;;;;;;71.97;33.88;;;-2.90;99.90;;;;;;5053303;28;20025;-74
2023/01/28 07:24:14;;;;;;;76.72;33.78;;;-2.80;99.90;;;;;;5053359;28;20029;-74
2023/01/28 07:26:39;;;;;;;70.82;34.03;;;-2.70;99.90;;;;;;5053647;28;20021;-74
2023/01/28 07:29:05;;;;;;;72.75;34.63;;;-2.60;99.90;;;;;;5053420;28;20028;-74
2023/01/28 07:31:30;;;;;;;73.30;34.58;;;-2.60;99.90;;;;;;5053316;28;20130;-74
2023/01/28 07:33:56;;;;;;;74.20;34.75;;;-2.60;99.90;;;;;;5065583;22;20085;-69
2023/01/28 07:36:21;;;;;;;73.47;33.85;;;-2.60;99.90;;;;;;5036097;28;20026;-69
2023/01/28 07:38:47;;;;;;;73.05;32.75;;;-2.50;99.90;;;;;;5036079;28;20032;-69
2023/01/28 07:41:12;;;;;;;77.72;34.13;;;-2.50;99.90;;;;;;5037191;28;20032;-69
2023/01/28 07:43:38;;;;;;;75.78;34.50;;;-2.40;99.90;;;;;;5036713;28;20482;-69
2023/01/28 07:46:04;;;;;;;72.32;34.25;;;-2.40;99.90;;;;;;5019865;28;20028;-69
2023/01/28 07:48:29;;;;;;;79.88;34.65;;;-2.40;99.90;;;;;;5016979;28;20022;-70
2023/01/28 07:50:58;;;;;;;78.00;34.53;;;-2.20;99.90;;;;;;5018867;28;20076;-70
2023/01/28 07:53:24;;;;;;;82.85;35.03;;;-2.10;99.90;;;;;;5035431;28;20029;-69
2023/01/28 07:55:49;;;;;;;82.43;36.08;;;-1.90;99.90;;;;;;5036248;28;20403;-70
2023/01/28 07:58:15;;;;;;;86.47;35.75;;;-1.80;99.90;;;;;;5036533;28;20447;-70
2023/01/28 08:00:41;;;;;;;83.25;34.70;;;-1.60;99.90;;;;;;5036376;28;20494;-70
2023/01/28 08:03:15;;;;;;;76.05;34.67;;;-1.50;99.90;;;;;;5036464;28;20029;-70
2023/01/28 08:05:45;;;;;;;79.18;35.38;;;-1.40;99.90;;;;;;5036389;28;20025;-70
2023/01/28 08:08:10;;;;;;;83.35;34.65;;;-1.30;99.90;;;;;;5036222;28;20080;-70
2023/01/28 08:10:37;;;;;;;64.53;32.38;;;-1.30;99.90;;;;;;5036410;28;20022;-69
2023/01/28 08:13:03;;;;;;;83.25;33.53;;;-1.20;99.90;;;;;;5036255;28;20022;-69
2023/01/28 08:15:28;;;;;;;71.57;32.33;;;-1.20;99.90;;;;;;5036281;28;20041;-69
2023/01/28 08:17:56;;;;;;;73.93;32.58;;;-1.10;99.90;;;;;;5036239;28;20025;-70
2023/01/28 08:20:23;;;;;;;74.72;33.95;;;-1.10;99.90;;;;;;5036120;28;20052;-71
2023/01/28 08:22:48;;;;;;;73.65;33.20;;;-1.10;99.90;;;;;;5036126;28;20025;-71
2023/01/28 08:25:14;;;;;;;76.10;33.95;;;-1.00;99.90;;;;;;5036058;28;20028;-71
2023/01/28 08:27:39;;;;;;;81.70;33.65;;;-0.90;99.90;;;;;;5035988;28;20021;-71
2023/01/28 08:30:05;;;;;;;79.30;32.70;;;-0.90;99.90;;;;;;5035642;28;20022;-70
2023/01/28 08:32:31;;;;;;;74.57;31.65;;;-0.80;99.90;;;;;;5035520;28;20104;-70
2023/01/28 08:34:57;;;;;;;76.50;33.20;;;-0.80;99.90;;;;;;5035706;28;20112;-70
2023/01/28 08:37:22;;;;;;;70.18;30.25;;;-0.80;99.90;;;;;;5035920;28;20033;-70
2023/01/28 08:39:49;;;;;;;68.38;31.45;;;-0.70;99.90;;;;;;5035864;28;20026;-70
2023/01/28 08:42:14;;;;;;;68.53;30.00;;;-0.70;99.90;;;;;;5036024;28;20060;-70
2023/01/28 08:44:40;;;;;;;75.53;32.03;;;-0.60;99.90;;;;;;5036784;28;20371;-70
2023/01/28 08:47:05;;;;;;;72.20;29.05;;;-0.60;99.90;;;;;;5035358;28;20506;-70
2023/01/28 08:49:31;;;;;;;77.90;33.92;;;-0.50;99.90;;;;;;5035732;28;20025;-70
2023/01/28 08:51:56;;;;;;;62.83;30.83;;;-0.40;99.90;;;;;;5035468;28;20025;-70
2023/01/28 08:54:22;;;;;;;77.28;31.02;;;-0.40;99.90;;;;;;5035586;28;20033;-71
2023/01/28 08:56:48;;;;;;;63.10;30.23;;;-0.30;99.90;;;;;;5028929;28;20504;-71
2023/01/28 08:59:14;;;;;;;74.22;31.77;;;-0.30;99.90;;;;;;4998144;28;20025;-71
2023/01/28 09:01:39;;;;;;;67.20;30.88;;;-0.20;99.90;;;;;;5015894;28;20080;-71
2023/01/28 09:04:05;;;;;;;68.65;30.23;;;-0.20;99.90;;;;;;5015864;28;20066;-71
2023/01/28 09:06:31;;;;;;;64.50;30.58;;;-0.10;99.90;;;;;;5015721;28;20025;-70
2023/01/28 09:09:00;;;;;;;65.00;29.90;;;0.00;99.90;;;;;;5015546;28;20029;-70
2023/01/28 09:11:26;;;;;;;63.78;29.02;;;0.00;99.90;;;;;;5015286;28;20084;-70
2023/01/28 09:13:51;;;;;;;63.65;29.10;;;0.00;99.90;;;;;;5015159;28;20034;-70
2023/01/28 09:16:17;;;;;;;69.07;29.13;;;0.00;99.90;;;;;;5015339;28;20377;-70
2023/01/28 09:18:43;;;;;;;75.10;33.25;;;0.00;99.90;;;;;;5033142;28;20085;-70
2023/01/28 09:21:09;;;;;;;66.88;30.35;;;0.00;99.90;;;;;;5034678;28;20036;-70
2023/01/28 09:23:35;;;;;;;69.88;30.10;;;0.10;99.90;;;;;;5034534;28;20072;-70
2023/01/28 09:26:02;;;;;;;69.95;30.83;;;0.10;99.90;;;;;;5034475;28;20033;-70
2023/01/28 09:28:28;;;;;;;66.60;28.75;;;0.10;99.90;;;;;;5034808;28;20441;-70
2023/01/28 09:31:00;;;;;;;64.63;29.55;;;0.10;99.90;;;;;;5034865;28;20025;-70
2023/01/28 09:33:26;;;;;;;65.82;29.63;;;0.20;99.90;;;;;;5034461;28;20577;-70
2023/01/28 09:35:51;;;;;;;61.25;28.30;;;0.30;99.90;;;;;;5034901;28;20132;-70
2023/01/28 09:38:17;;;;;;;66.65;28.27;;;0.30;99.90;;;;;;5034815;28;20060;-70
2023/01/28 09:40:43;;;;;;;75.10;31.67;;;0.30;99.90;;;;;;5034574;28;20025;-70
2023/01/28 09:43:47;;;;;;;65.82;27.60;;;0.40;99.90;;;;;;5034492;28;20021;-70
2023/01/28 09:46:15;;;;;;;70.10;29.45;;;0.40;99.90;;;;;;5034377;28;20076;-70
2023/01/28 09:48:47;;;;;;;68.00;26.35;;;0.40;99.90;;;;;;5034888;28;20418;-70
2023/01/28 09:51:31;;;;;;;64.70;27.63;;;0.50;99.90;;;;;;5034678;28;20075;-70
2023/01/28 09:54:02;;;;;;;63.33;29.80;;;0.50;99.90;;;;;;5034465;28;20101;-70
2023/01/28 09:56:40;;;;;;;55.60;26.20;;;0.50;99.90;;;;;;5034657;28;20025;-70
2023/01/28 09:59:19;;;;;;;57.67;26.58;;;0.50;99.90;;;;;;5033374;28;20025;-70
2023/01/28 10:01:53;;;;;;;65.18;27.60;;;0.60;99.90;;;;;;5034327;28;20072;-70
2023/01/28 10:04:27;;;;;;;56.85;27.02;;;0.60;99.90;;;;;;5034229;28;20049;-70
2023/01/28 10:07:23;;;;;;;54.83;24.55;;;0.60;99.90;;;;;;5033935;28;20021;-70
2023/01/28 10:10:11;;;;;;;60.75;27.45;;;0.70;99.90;;;;;;5034535;28;20028;-71
2023/01/28 10:12:39;;;;;;;61.38;25.65;;;0.80;99.90;;;;;;5034095;28;20056;-70
2023/01/28 10:15:43;;;;;;;63.85;24.98;;;0.80;99.90;;;;;;5033879;28;20025;-70
2023/01/28 10:18:10;;;;;;;57.25;25.90;;;0.90;99.90;;;;;;5003109;28;20080;-70
2023/01/28 10:21:01;;;;;;;63.42;27.05;;;0.90;99.90;;;;;;5033262;28;20105;-71
2023/01/28 10:23:46;;;;;;;66.45;25.77;;;0.90;99.90;;;;;;5034432;28;20149;-70
2023/01/28 10:26:23;;;;;;;58.95;25.48;;;1.00;99.90;;;;;;5033376;28;20032;-70
2023/01/28 10:28:54;;;;;;;52.38;23.35;;;1.00;99.90;;;;;;5033716;28;20028;-70
2023/01/28 10:31:22;;;;;;;52.53;24.92;;;1.00;99.90;;;;;;5033365;28;20021;-70
2023/01/28 10:33:47;;;;;;;56.28;22.75;;;1.00;99.90;;;;;;5033432;28;20433;-70
2023/01/28 10:36:14;;;;;;;52.10;22.58;;;1.00;99.90;;;;;;5033317;28;20105;-70
2023/01/28 10:38:39;;;;;;;52.28;23.42;;;0.90;99.90;;;;;;5033476;28;20057;-70
2023/01/28 10:41:05;;;;;;;50.40;23.70;;;0.90;99.90;;;;;;5033224;28;20064;-70
2023/01/28 10:43:37;;;;;;;48.55;22.45;;;1.00;99.90;;;;;;5033498;28;20021;-70
2023/01/28 10:46:16;;;;;;;49.20;22.17;;;1.10;99.90;;;;;;5033262;28;20030;-70
2023/01/28 10:48:47;;;;;;;58.95;23.35;;;1.30;99.90;;;;;;5033101;28;20017;-70
2023/01/28 10:51:14;;;;;;;48.08;21.30;;;1.30;99.90;;;;;;5033424;28;20060;-69
2023/01/28 10:53:44;;;;;;;45.72;21.23;;;1.50;99.90;;;;;;5033146;28;20388;-69
2023/01/28 10:56:16;;;;;;;46.03;20.27;;;1.60;99.90;;;;;;5032928;28;20065;-69
2023/01/28 10:59:03;;;;;;;48.65;21.05;;;1.70;99.90;;;;;;5033445;28;20116;-69
2023/01/28 11:01:47;;;;;;;43.85;20.23;;;1.70;99.90;;;;;;5033230;28;20076;-69
2023/01/28 11:04:29;;;;;;;43.70;18.95;;;1.70;99.90;;;;;;5033108;28;20024;-69
2023/01/28 11:07:02;;;;;;;43.17;18.58;;;1.80;99.90;;;;;;5032852;28;20083;-70
2023/01/28 11:09:36;;;;;;;42.33;18.55;;;1.80;99.90;;;;;;5032957;28;20028;-70
2023/01/28 11:12:12;;;;;;;42.40;22.13;;;2.00;99.90;;;;;;5032813;28;20044;-70
2023/01/28 11:14:53;;;;;;;39.75;18.20;;;2.00;99.90;;;;;;5032819;28;20407;-70
2023/01/28 11:17:21;;;;;;;48.65;21.17;;;2.00;99.90;;;;;;5033031;28;20033;-70
2023/01/28 11:19:47;;;;;;;48.58;19.10;;;2.10;99.90;;;;;;5032909;28;20018;-70
2023/01/28 11:22:23;;;;;;;43.00;18.70;;;2.10;99.90;;;;;;5032883;28;20033;-70
2023/01/28 11:24:49;;;;;;;35.78;18.17;;;2.30;99.90;;;;;;5032589;28;20116;-70
2023/01/28 11:27:17;;;;;;;38.08;18.63;;;2.40;99.90;;;;;;5033093;28;20053;-70
2023/01/28 11:29:43;;;;;;;41.20;17.90;;;2.50;99.90;;;;;;5032912;28;20030;-70
2023/01/28 11:32:20;;;;;;;38.42;17.95;;;2.60;99.90;;;;;;5033054;28;20026;-70
2023/01/28 11:34:56;;;;;;;41.72;16.90;;;2.80;99.90;;;;;;5032564;28;20038;-70
2023/01/28 11:37:23;;;;;;;34.40;17.52;;;2.80;99.90;;;;;;5032888;28;20034;-70
2023/01/28 11:40:00;;;;;;;32.85;16.60;;;2.80;99.90;;;;;;5032655;28;20044;-71
2023/01/28 11:42:26;;;;;;;26.42;13.23;;;2.90;99.90;;;;;;5032928;28;20100;-71
2023/01/28 11:44:53;;;;;;;22.50;12.13;;;2.90;99.90;;;;;;5032708;28;20065;-71
2023/01/28 11:47:57;;;;;;;24.52;10.85;;;2.90;99.90;;;;;;5032705;28;20434;-70
2023/01/28 11:50:23;;;;;;;;;;;3.00;99.90;;;;;;5032920;28;20032;-70
2023/01/28 11:53:22;;;;;;;23.45;10.18;;;3.00;99.90;;;;;;5032283;28;19909;-70
2023/01/28 11:55:56;;;;;;;18.50;9.15;;;3.00;99.90;;;;;;5032958;28;20078;-70
2023/01/28 11:58:31;;;;;;;25.02;10.20;;;3.10;99.90;;;;;;5014504;28;20079;-70
2023/01/28 12:01:11;;;;;;;18.45;8.38;;;3.10;99.90;;;;;;5032566;28;20029;-70
2023/01/28 12:03:44;;;;;;;22.58;8.60;;;3.10;99.90;;;;;;5014437;28;20026;-70
2023/01/28 12:06:29;;;;;;;13.30;7.68;;;3.20;99.90;;;;;;5032769;28;20025;-70
2023/01/28 12:09:06;;;;;;;23.55;7.80;;;3.20;99.90;;;;;;5032788;28;20017;-71
2023/01/28 12:12:12;;;;;;;16.33;7.40;;;3.10;99.90;;;;;;5032512;28;20029;-70
2023/01/28 12:15:25;;;;;;;18.70;6.15;;;3.20;99.90;;;;;;5021796;28;20562;-68
2023/01/28 12:18:12;;;;;;;13.82;6.18;;;3.40;99.90;;;;;;5023885;28;20037;-68
2023/01/28 12:20:48;;;;;;;11.23;4.20;;;3.50;99.90;;;;;;5027233;28;20029;-68
2023/01/28 12:23:59;;;;;;;10.48;3.63;;;3.60;99.90;;;;;;5032453;28;20018;-68
2023/01/28 12:26:47;;;;;;;14.50;3.40;;;3.70;99.90;;;;;;5031896;28;20029;-68
2023/01/28 12:29:12;;;;;;;8.20;2.15;;;3.60;99.90;;;;;;5028868;28;20022;-68
2023/01/28 12:31:55;;;;;;;12.25;2.35;;;3.70;99.90;;;;;;5032773;28;20039;-68
2023/01/28 12:34:35;;;;;;;14.07;3.28;;;3.60;99.90;;;;;;5028947;28;20044;-67
2023/01/28 12:37:15;;;;;;;5.32;2.55;;;3.60;99.90;;;;;;5027661;28;20060;-67
2023/01/28 12:40:33;;;;;;;6.35;2.28;;;3.50;99.90;;;;;;5023281;28;20029;-67
2023/01/28 12:43:14;;;;;;;4.93;1.40;;;3.50;99.90;;;;;;4947002;29;20075;-68
2023/01/28 12:45:47;;;;;;;4.95;1.92;;;3.50;99.90;;;;;;4948241;29;20047;-69
2023/01/28 12:48:40;;;;;;;2.90;1.48;;;3.50;99.90;;;;;;4996888;28;20056;-69
2023/01/28 12:51:18;;;;;;;11.57;2.53;;;3.60;99.90;;;;;;5030509;28;20034;-69
2023/01/28 12:54:03;;;;;;;4.75;1.42;;;3.70;99.90;;;;;;5022861;28;20029;-69
2023/01/28 12:56:37;;;;;;;9.10;2.10;;;3.80;99.90;;;;;;5027945;28;20103;-69
2023/01/28 12:59:11;;;;;;;12.00;2.03;;;3.80;99.90;;;;;;5023473;28;20049;-69
2023/01/28 13:01:41;;;;;;;10.35;2.85;;;3.90;99.90;;;;;;5029535;28;20112;-68
2023/01/28 13:04:38;;;;;;;13.75;2.22;;;4.00;99.90;;;;;;5029641;28;20025;-68
2023/01/28 13:07:44;;;;;;;7.72;2.13;;;4.00;99.90;;;;;;5022127;28;20026;-68
2023/01/28 13:10:24;;;;;;;9.82;2.22;;;3.90;99.90;;;;;;5028561;28;20033;-67
2023/01/28 13:12:49;;;;;;;6.78;2.20;;;3.90;99.90;;;;;;5028472;28;20029;-68
2023/01/28 13:15:17;;;;;;;6.18;1.88;;;3.90;99.90;;;;;;5024623;28;20033;-68
2023/01/28 13:18:00;;;;;;;11.38;3.10;;;4.00;99.90;;;;;;5031292;28;20057;-67
2023/01/28 13:20:49;;;;;;;8.10;2.08;;;4.00;99.90;;;;;;5027607;28;20091;-69
2023/01/28 13:23:45;;;;;;;10.50;1.30;;;4.10;99.90;;;;;;5024160;28;20452;-69